Kalliste — FNEH — position and weather

sailwx.info

Track history (hours):
 
Tides and Currents Weather Stations Pressure Air Temp Water Temp Dewpoint Dewpoint Depression Visibility Wind Speed Wind Dir Waves Ship Positions

Kalliste

Last reported at 2017-Dec-11 11:51 UTC. Time now 2017-Dec-14 00:19 UTC.
Position N 43°20' E 005°21'.

Length 165 m; beam 29 m.

Type: Passenger vessel. MMSI: 227202000.

Date/timePositionNaut miles runAvg speedWind from/ knotsBaromVisibWave heightAir tempDewpointWater temp
2017-Dec-11 11:51N 43°20' E 005°21'0 0.0
2017-Dec-11 08:09N 43°20' E 005°21'0 0.0
2017-Dec-10 21:12N 43°20' E 005°21'0 0.0
2017-Dec-10 09:33N 43°20' E 005°21'0 0.0
2017-Dec-10 09:15N 43°20' E 005°21'0 0.0
2017-Dec-10 08:51N 43°20' E 005°21'0 0.0
2017-Dec-10 07:48N 43°20' E 005°21'0 0.0
2017-Dec-10 07:21N 43°20' E 005°21'0 0.0
2017-Dec-10 07:00N 43°20' E 005°21'2 3.7
2017-Dec-10 06:30N 43°21' E 005°19'611.9
2017-Dec-10 06:00N 43°15' E 005°18'15 0.4
2017-Dec-08 18:58N 43°04' E 005°31'1320.4
2017-Dec-08 18:21N 43°12' E 005°18'617.8
2017-Dec-08 18:00N 43°18' E 005°16'4 7.4
2017-Dec-08 17:30N 43°20' E 005°21'1 0.3
2017-Dec-08 13:29N 43°19' E 005°22'0 0.0
2017-Dec-08 06:02N 43°19' E 005°22'0 0.0
2017-Dec-08 05:50N 43°19' E 005°22'0 0.0
2017-Dec-08 05:05N 43°19' E 005°22'0 0.0
2017-Dec-08 04:32N 43°19' E 005°22'0 0.0
2017-Dec-08 04:20N 43°19' E 005°22'0 0.0
2017-Dec-08 03:50N 43°19' E 005°22'0 0.0
2017-Dec-08 03:20N 43°19' E 005°22'0 0.0
2017-Dec-08 02:50N 43°19' E 005°22'0 0.0
2017-Dec-08 02:23N 43°19' E 005°22'0 0.0
2017-Dec-08 01:38N 43°19' E 005°22'0 0.0
2017-Dec-08 01:20N 43°19' E 005°22'0 0.0
2017-Dec-08 00:56N 43°19' E 005°22'0 0.0
2017-Dec-08 00:23N 43°19' E 005°22'0 0.0
2017-Dec-07 23:56N 43°19' E 005°22'0 0.0
2017-Dec-07 23:08N 43°19' E 005°22'0 0.0
2017-Dec-07 22:56N 43°19' E 005°22'0 0.0
2017-Dec-07 22:26N 43°19' E 005°22'0 0.0
2017-Dec-07 21:41N 43°19' E 005°22'0 0.0
2017-Dec-07 21:29N 43°19' E 005°22'0 0.0
2017-Dec-07 20:44N 43°19' E 005°22'0 0.0
2017-Dec-07 20:14N 43°19' E 005°22'0 0.0
2017-Dec-07 19:56N 43°19' E 005°22'0 0.0
2017-Dec-07 19:29N 43°19' E 005°22'0 0.0
2017-Dec-07 18:59N 43°19' E 005°22'0 0.0
2017-Dec-07 18:14N 43°19' E 005°22'0 0.0
2017-Dec-07 17:59N 43°19' E 005°22'0 0.0
2017-Dec-07 17:14N 43°19' E 005°22'0 0.0
2017-Dec-07 16:59N 43°19' E 005°22'0 0.0
2017-Dec-07 16:20N 43°19' E 005°22'0 0.0
2017-Dec-07 15:59N 43°19' E 005°22'0 0.0
2017-Dec-07 15:29N 43°19' E 005°22'0 0.0
2017-Dec-07 14:50N 43°19' E 005°22'0 0.0
2017-Dec-07 14:20N 43°19' E 005°22'0 0.0
2017-Dec-07 13:50N 43°19' E 005°22'0 0.0
2017-Dec-07 11:26N 43°19' E 005°22'0 0.0
2017-Dec-07 06:41N 43°19' E 005°22'0 0.0
2017-Dec-07 05:32N 43°19' E 005°22'0 0.0
2017-Dec-07 04:29N 43°19' E 005°22'0 0.0
2017-Dec-07 03:59N 43°19' E 005°22'0 0.0
2017-Dec-07 03:29N 43°19' E 005°22'0 0.0
2017-Dec-07 02:53N 43°19' E 005°22'0 0.0
2017-Dec-07 02:29N 43°19' E 005°22'0 0.0
2017-Dec-07 01:47N 43°19' E 005°22'0 0.0
2017-Dec-07 01:20N 43°19' E 005°22'0 0.0
2017-Dec-07 00:47N 43°19' E 005°22'0 0.0
2017-Dec-07 00:20N 43°19' E 005°22'0 0.0
2017-Dec-06 23:53N 43°19' E 005°22'0 0.0
2017-Dec-06 23:23N 43°19' E 005°22'0 0.0
2017-Dec-06 22:50N 43°19' E 005°22'0 0.0
2017-Dec-06 22:23N 43°19' E 005°22'0 0.0
2017-Dec-06 21:59N 43°19' E 005°22'0 0.0
2017-Dec-06 21:29N 43°19' E 005°22'0 0.0
2017-Dec-06 20:50N 43°19' E 005°22'  
2017-Dec-04 09:55N 43°19' E 005°22'0 0.0
2017-Dec-04 09:25N 43°19' E 005°22'0 0.0
2017-Dec-04 07:16N 43°19' E 005°22'0 0.0
2017-Dec-04 06:43N 43°19' E 005°22'0 0.0
2017-Dec-04 06:28N 43°19' E 005°22'0 0.0
2017-Dec-04 05:58N 43°19' E 005°22'0 0.0
2017-Dec-04 05:28N 43°19' E 005°22'0 0.0
2017-Dec-04 04:58N 43°19' E 005°22'0 0.0
2017-Dec-04 04:19N 43°19' E 005°22'0 0.0
2017-Dec-04 03:49N 43°19' E 005°22'0 0.0
2017-Dec-04 03:25N 43°19' E 005°22'0 0.0
2017-Dec-04 02:58N 43°19' E 005°22'0 0.0
2017-Dec-04 02:25N 43°19' E 005°22'0 0.0
2017-Dec-04 01:52N 43°19' E 005°22'0 0.0
2017-Dec-04 01:22N 43°19' E 005°22'0 0.0
2017-Dec-04 00:52N 43°19' E 005°22'0 0.0
2017-Dec-04 00:22N 43°19' E 005°22'0 0.0
2017-Dec-03 23:52N 43°19' E 005°22'0 0.0
2017-Dec-03 23:25N 43°19' E 005°22'0 0.0
2017-Dec-03 22:55N 43°19' E 005°22'0 0.0
2017-Dec-03 22:25N 43°19' E 005°22'0 0.0
2017-Dec-03 21:58N 43°19' E 005°22'0 0.0
2017-Dec-03 21:28N 43°19' E 005°22'0 0.0
2017-Dec-03 20:58N 43°19' E 005°22'0 0.0
2017-Dec-03 20:28N 43°19' E 005°22'0 0.0
2017-Dec-03 19:58N 43°19' E 005°22'0 0.0
2017-Dec-03 19:28N 43°19' E 005°22'0 0.0
2017-Dec-03 18:52N 43°19' E 005°22'0 0.0
2017-Dec-03 18:25N 43°19' E 005°22'0 0.0
2017-Dec-03 17:58N 43°19' E 005°22'0 0.0
2017-Dec-03 17:28N 43°19' E 005°22'0 0.0
2017-Dec-03 16:58N 43°19' E 005°22'0 0.0
2017-Dec-03 16:28N 43°19' E 005°22'0 0.0
2017-Dec-03 15:58N 43°19' E 005°22'0 0.0
2017-Dec-03 15:19N 43°19' E 005°22'0 0.0
2017-Dec-03 14:49N 43°19' E 005°22'0 0.0
2017-Dec-03 14:25N 43°19' E 005°22'0 0.0
2017-Dec-03 13:58N 43°19' E 005°22'0 0.0
2017-Dec-03 13:22N 43°19' E 005°22'0 0.0
2017-Dec-03 12:52N 43°19' E 005°22'0 0.0
2017-Dec-03 12:22N 43°19' E 005°22'0 0.0
2017-Dec-03 11:52N 43°19' E 005°22'0 0.0
2017-Dec-03 11:22N 43°19' E 005°22'0 0.0
2017-Dec-03 10:52N 43°19' E 005°22'0 0.0
2017-Dec-03 10:25N 43°19' E 005°22'0 0.0
2017-Dec-03 09:55N 43°19' E 005°22'0 0.0
2017-Dec-03 09:30N 43°19' E 005°22'1 2.1
2017-Dec-03 09:00N 43°20' E 005°21'3 6.4
2017-Dec-03 08:31N 43°17' E 005°19'7517.8
2017-Dec-03 04:19N 43°02' E 006°60'620.8
2017-Dec-03 04:00N 43°03' E 007°08'7119.9
2017-Dec-03 00:27N 43°14' E 008°44'919.3
2017-Dec-03 00:01N 43°13' E 008°56'1019.7
2017-Dec-02 23:31N 43°14' E 009°09'1020.0
2017-Dec-02 23:00N 43°15' E 009°23'1020.2
2017-Dec-02 22:31N 43°15' E 009°37'918.5
2017-Dec-02 22:00N 43°06' E 009°39'190 6.8
2017-Dec-01 18:15N 43°12' E 005°18'818.0
2017-Dec-01 17:50N 43°20' E 005°17'2 7.2
2017-Dec-01 17:30N 43°20' E 005°21'  
Track history (hours):
 
Tides and Currents Weather Stations Pressure Air Temp Water Temp Dewpoint Dewpoint Depression Visibility Wind Speed Wind Dir Waves Ship Positions

Kalliste

Last reported at 2017-Dec-11 11:51 UTC. Time now 2017-Dec-14 00:19 UTC.
Position N 43°20' E 005°21'.

Length 165 m; beam 29 m.

Type: Passenger vessel. MMSI: 227202000.

Date/timePositionNaut miles runAvg speedWind from/ knotsBaromVisibWave heightAir tempDewpointWater temp
2017-Dec-11 11:51N 43°20' E 005°21'0 0.0
2017-Dec-11 08:09N 43°20' E 005°21'0 0.0
2017-Dec-10 21:12N 43°20' E 005°21'0 0.0
2017-Dec-10 09:33N 43°20' E 005°21'0 0.0
2017-Dec-10 09:15N 43°20' E 005°21'0 0.0
2017-Dec-10 08:51N 43°20' E 005°21'0 0.0
2017-Dec-10 07:48N 43°20' E 005°21'0 0.0
2017-Dec-10 07:21N 43°20' E 005°21'0 0.0
2017-Dec-10 07:00N 43°20' E 005°21'2 3.7
2017-Dec-10 06:30N 43°21' E 005°19'611.9
2017-Dec-10 06:00N 43°15' E 005°18'15 0.4
2017-Dec-08 18:58N 43°04' E 005°31'1320.4
2017-Dec-08 18:21N 43°12' E 005°18'617.8
2017-Dec-08 18:00N 43°18' E 005°16'4 7.4
2017-Dec-08 17:30N 43°20' E 005°21'1 0.3
2017-Dec-08 13:29N 43°19' E 005°22'0 0.0
2017-Dec-08 06:02N 43°19' E 005°22'0 0.0
2017-Dec-08 05:50N 43°19' E 005°22'0 0.0
2017-Dec-08 05:05N 43°19' E 005°22'0 0.0
2017-Dec-08 04:32N 43°19' E 005°22'0 0.0
2017-Dec-08 04:20N 43°19' E 005°22'0 0.0
2017-Dec-08 03:50N 43°19' E 005°22'0 0.0
2017-Dec-08 03:20N 43°19' E 005°22'0 0.0
2017-Dec-08 02:50N 43°19' E 005°22'0 0.0
2017-Dec-08 02:23N 43°19' E 005°22'0 0.0
2017-Dec-08 01:38N 43°19' E 005°22'0 0.0
2017-Dec-08 01:20N 43°19' E 005°22'0 0.0
2017-Dec-08 00:56N 43°19' E 005°22'0 0.0
2017-Dec-08 00:23N 43°19' E 005°22'0 0.0
2017-Dec-07 23:56N 43°19' E 005°22'0 0.0
2017-Dec-07 23:08N 43°19' E 005°22'0 0.0
2017-Dec-07 22:56N 43°19' E 005°22'0 0.0
2017-Dec-07 22:26N 43°19' E 005°22'0 0.0
2017-Dec-07 21:41N 43°19' E 005°22'0 0.0
2017-Dec-07 21:29N 43°19' E 005°22'0 0.0
2017-Dec-07 20:44N 43°19' E 005°22'0 0.0
2017-Dec-07 20:14N 43°19' E 005°22'0 0.0
2017-Dec-07 19:56N 43°19' E 005°22'0 0.0
2017-Dec-07 19:29N 43°19' E 005°22'0 0.0
2017-Dec-07 18:59N 43°19' E 005°22'0 0.0
2017-Dec-07 18:14N 43°19' E 005°22'0 0.0
2017-Dec-07 17:59N 43°19' E 005°22'0 0.0
2017-Dec-07 17:14N 43°19' E 005°22'0 0.0
2017-Dec-07 16:59N 43°19' E 005°22'0 0.0
2017-Dec-07 16:20N 43°19' E 005°22'0 0.0
2017-Dec-07 15:59N 43°19' E 005°22'0 0.0
2017-Dec-07 15:29N 43°19' E 005°22'0 0.0
2017-Dec-07 14:50N 43°19' E 005°22'0 0.0
2017-Dec-07 14:20N 43°19' E 005°22'0 0.0
2017-Dec-07 13:50N 43°19' E 005°22'0 0.0
2017-Dec-07 11:26N 43°19' E 005°22'0 0.0
2017-Dec-07 06:41N 43°19' E 005°22'0 0.0
2017-Dec-07 05:32N 43°19' E 005°22'0 0.0
2017-Dec-07 04:29N 43°19' E 005°22'0 0.0
2017-Dec-07 03:59N 43°19' E 005°22'0 0.0
2017-Dec-07 03:29N 43°19' E 005°22'0 0.0
2017-Dec-07 02:53N 43°19' E 005°22'0 0.0
2017-Dec-07 02:29N 43°19' E 005°22'0 0.0
2017-Dec-07 01:47N 43°19' E 005°22'0 0.0
2017-Dec-07 01:20N 43°19' E 005°22'0 0.0
2017-Dec-07 00:47N 43°19' E 005°22'0 0.0
2017-Dec-07 00:20N 43°19' E 005°22'0 0.0
2017-Dec-06 23:53N 43°19' E 005°22'0 0.0
2017-Dec-06 23:23N 43°19' E 005°22'0 0.0
2017-Dec-06 22:50N 43°19' E 005°22'0 0.0
2017-Dec-06 22:23N 43°19' E 005°22'0 0.0
2017-Dec-06 21:59N 43°19' E 005°22'0 0.0
2017-Dec-06 21:29N 43°19' E 005°22'0 0.0
2017-Dec-06 20:50N 43°19' E 005°22'  
2017-Dec-04 09:55N 43°19' E 005°22'0 0.0
2017-Dec-04 09:25N 43°19' E 005°22'0 0.0
2017-Dec-04 07:16N 43°19' E 005°22'0 0.0
2017-Dec-04 06:43N 43°19' E 005°22'0 0.0
2017-Dec-04 06:28N 43°19' E 005°22'0 0.0
2017-Dec-04 05:58N 43°19' E 005°22'0 0.0
2017-Dec-04 05:28N 43°19' E 005°22'0 0.0
2017-Dec-04 04:58N 43°19' E 005°22'0 0.0
2017-Dec-04 04:19N 43°19' E 005°22'0 0.0
2017-Dec-04 03:49N 43°19' E 005°22'0 0.0
2017-Dec-04 03:25N 43°19' E 005°22'0 0.0
2017-Dec-04 02:58N 43°19' E 005°22'0 0.0
2017-Dec-04 02:25N 43°19' E 005°22'0 0.0
2017-Dec-04 01:52N 43°19' E 005°22'0 0.0
2017-Dec-04 01:22N 43°19' E 005°22'0 0.0
2017-Dec-04 00:52N 43°19' E 005°22'0 0.0
2017-Dec-04 00:22N 43°19' E 005°22'0 0.0
2017-Dec-03 23:52N 43°19' E 005°22'0 0.0
2017-Dec-03 23:25N 43°19' E 005°22'0 0.0
2017-Dec-03 22:55N 43°19' E 005°22'0 0.0
2017-Dec-03 22:25N 43°19' E 005°22'0 0.0
2017-Dec-03 21:58N 43°19' E 005°22'0 0.0
2017-Dec-03 21:28N 43°19' E 005°22'0 0.0
2017-Dec-03 20:58N 43°19' E 005°22'0 0.0
2017-Dec-03 20:28N 43°19' E 005°22'0 0.0
2017-Dec-03 19:58N 43°19' E 005°22'0 0.0
2017-Dec-03 19:28N 43°19' E 005°22'0 0.0
2017-Dec-03 18:52N 43°19' E 005°22'0 0.0
2017-Dec-03 18:25N 43°19' E 005°22'0 0.0
2017-Dec-03 17:58N 43°19' E 005°22'0 0.0
2017-Dec-03 17:28N 43°19' E 005°22'0 0.0
2017-Dec-03 16:58N 43°19' E 005°22'0 0.0
2017-Dec-03 16:28N 43°19' E 005°22'0 0.0
2017-Dec-03 15:58N 43°19' E 005°22'0 0.0
2017-Dec-03 15:19N 43°19' E 005°22'0 0.0
2017-Dec-03 14:49N 43°19' E 005°22'0 0.0
2017-Dec-03 14:25N 43°19' E 005°22'0 0.0
2017-Dec-03 13:58N 43°19' E 005°22'0 0.0
2017-Dec-03 13:22N 43°19' E 005°22'0 0.0
2017-Dec-03 12:52N 43°19' E 005°22'0 0.0
2017-Dec-03 12:22N 43°19' E 005°22'0 0.0
2017-Dec-03 11:52N 43°19' E 005°22'0 0.0
2017-Dec-03 11:22N 43°19' E 005°22'0 0.0
2017-Dec-03 10:52N 43°19' E 005°22'0 0.0
2017-Dec-03 10:25N 43°19' E 005°22'0 0.0
2017-Dec-03 09:55N 43°19' E 005°22'0 0.0
2017-Dec-03 09:30N 43°19' E 005°22'1 2.1
2017-Dec-03 09:00N 43°20' E 005°21'3 6.4
2017-Dec-03 08:31N 43°17' E 005°19'7517.8
2017-Dec-03 04:19N 43°02' E 006°60'620.8
2017-Dec-03 04:00N 43°03' E 007°08'7119.9
2017-Dec-03 00:27N 43°14' E 008°44'919.3
2017-Dec-03 00:01N 43°13' E 008°56'1019.7
2017-Dec-02 23:31N 43°14' E 009°09'1020.0
2017-Dec-02 23:00N 43°15' E 009°23'1020.2
2017-Dec-02 22:31N 43°15' E 009°37'918.5
2017-Dec-02 22:00N 43°06' E 009°39'190 6.8
2017-Dec-01 18:15N 43°12' E 005°18'818.0
2017-Dec-01 17:50N 43°20' E 005°17'2 7.2
2017-Dec-01 17:30N 43°20' E 005°21'  

Dump ship's entire track history